Reedville, Texas
Current Conditions -  °F | °C
As of 5:55 AM on Thursday 27 Nov 2014 (Local Time) from KHYI Reporting Station
Clear Clear  
Wind Chill: 41°   Ceiling: Unl
Heat Index: 46°   Visibility: 10mi
Dew Point: 36°   Wind: 12mph
Humidity: 66%   Direction: 10°N
Pressure: 30.45"   Gusts: NA
Location:  29.8896°N, 97.8257°W
Report Text: KHYI 271155Z 01010KT 10SM CLR 08/02 A3045 RMK AO1 10090 20070 52017
Loading
Personal Weather Stations






























Interactive Weather Map New forecast layout! Learn more

10-Day Weather Forecast

Advertisements
Track Severe Weather on mobile